createdAt,value
2022-11-08T00:01:35.663Z,2.10
2022-11-08T00:04:10.510Z,2.45
2022-11-08T00:06:53.978Z,2.85
2022-11-08T00:09:37.358Z,2.33
2022-11-08T00:12:21.206Z,3.22
2022-11-08T00:14:52.183Z,2.30
2022-11-08T00:17:25.736Z,2.78
2022-11-08T00:19:59.959Z,2.97
2022-11-08T00:22:33.393Z,2.65
2022-11-08T00:25:04.537Z,2.63
2022-11-08T00:27:35.331Z,2.47
2022-11-08T00:30:06.753Z,2.53
2022-11-08T00:32:38.673Z,2.58
2022-11-08T00:35:13.051Z,3.08
2022-11-08T00:37:44.059Z,2.60
2022-11-08T00:40:16.588Z,2.47
2022-11-08T00:42:47.957Z,2.90
2022-11-08T00:45:19.092Z,2.55
2022-11-08T00:47:50.102Z,3.15
2022-11-08T00:50:23.895Z,2.53
2022-11-08T00:52:55.513Z,3.00
2022-11-08T00:55:26.246Z,2.85
2022-11-08T00:58:00.716Z,2.88
2022-11-08T01:00:31.782Z,2.70
2022-11-08T01:03:15.106Z,2.60
2022-11-08T01:05:49.982Z,2.75
2022-11-08T01:08:29.980Z,2.58
2022-11-08T01:11:05.009Z,2.67
2022-11-08T01:13:36.550Z,2.65
2022-11-08T01:16:10.736Z,2.33
2022-11-08T01:18:42.059Z,3.22
2022-11-08T01:21:17.474Z,2.50
2022-11-08T01:23:49.316Z,2.47
2022-11-08T01:26:22.859Z,2.45
2022-11-08T01:28:54.575Z,2.75
2022-11-08T01:31:27.822Z,2.30
2022-11-08T01:33:59.832Z,2.97
2022-11-08T01:36:33.913Z,2.13
2022-11-08T01:39:05.068Z,2.22
2022-11-08T01:41:36.103Z,1.98
2022-11-08T01:44:07.304Z,2.28
2022-11-08T01:46:44.134Z,2.67
2022-11-08T01:49:38.822Z,2.30
2022-11-08T01:52:26.172Z,2.22
2022-11-08T01:55:09.917Z,2.15
2022-11-08T01:57:47.317Z,2.50
2022-11-08T02:00:20.336Z,2.13
2022-11-08T02:02:57.497Z,2.33
2022-11-08T02:05:30.164Z,1.90
2022-11-08T02:08:09.644Z,2.13
2022-11-08T02:10:43.434Z,2.75
2022-11-08T02:13:17.971Z,2.50
2022-11-08T02:15:49.096Z,2.58
2022-11-08T02:18:22.069Z,2.83
2022-11-08T02:21:01.775Z,2.80
2022-11-08T02:23:46.046Z,2.13
2022-11-08T02:26:18.446Z,2.42
2022-11-08T02:28:51.810Z,2.53
2022-11-08T02:31:23.173Z,2.60
2022-11-08T02:33:54.212Z,2.58
2022-11-08T02:36:27.418Z,2.20
2022-11-08T02:39:01.410Z,2.10
2022-11-08T02:41:32.208Z,2.50
2022-11-08T02:44:03.024Z,1.90
2022-11-08T02:46:34.227Z,1.33
2022-11-08T02:49:04.926Z,1.33
2022-11-08T02:51:35.951Z,0.80
2022-11-08T02:54:09.912Z,0.70
2022-11-08T02:56:40.657Z,0.60
2022-11-08T02:59:11.397Z,0.50
2022-11-08T03:01:42.730Z,0.88
2022-11-08T03:04:13.715Z,0.65
2022-11-08T03:06:44.759Z,0.30
2022-11-08T03:09:18.625Z,0.65
2022-11-08T03:11:49.325Z,0.30
2022-11-08T03:14:20.285Z,0.35
2022-11-08T03:16:51.007Z,0.22
2022-11-08T03:19:21.806Z,0.30
2022-11-08T03:21:52.728Z,0.20
2022-11-08T03:24:27.487Z,0.57
2022-11-08T03:26:58.256Z,0.57
2022-11-08T03:29:29.460Z,0.57
2022-11-08T03:32:00.269Z,0.65
2022-11-08T03:34:31.009Z,0.50
2022-11-08T03:37:02.249Z,0.50
2022-11-08T03:39:35.951Z,0.52
2022-11-08T03:42:08.253Z,0.47
2022-11-08T03:44:39.097Z,0.65
2022-11-08T03:47:10.325Z,0.40
2022-11-08T03:49:41.161Z,0.50
2022-11-08T03:52:12.450Z,0.70
2022-11-08T03:54:46.091Z,0.50
2022-11-08T03:57:16.992Z,0.40
2022-11-08T03:59:47.793Z,0.40
2022-11-08T04:02:19.056Z,0.30
2022-11-08T04:04:49.875Z,0.50
2022-11-08T04:07:20.752Z,0.50
2022-11-08T04:09:54.088Z,0.40
2022-11-08T04:12:37.156Z,0.73
2022-11-08T04:15:24.290Z,0.73
2022-11-08T04:18:09.030Z,0.90
2022-11-08T04:20:54.411Z,0.75
2022-11-08T04:23:25.804Z,0.63
2022-11-08T04:26:03.706Z,0.52
2022-11-08T04:28:37.308Z,0.40
2022-11-08T04:31:10.978Z,0.20
2022-11-08T04:33:41.788Z,0.35
2022-11-08T04:36:14.225Z,0.30
2022-11-08T04:38:45.099Z,0.30
2022-11-08T04:41:20.160Z,0.30
2022-11-08T04:43:51.955Z,0.40
2022-11-08T04:46:24.988Z,0.30
2022-11-08T04:48:57.442Z,0.38
2022-11-08T04:51:30.413Z,0.30
2022-11-08T04:54:03.211Z,0.25
2022-11-08T04:56:36.739Z,0.40
2022-11-08T04:59:11.712Z,0.30
2022-11-08T05:01:43.034Z,0.68
2022-11-08T05:04:14.223Z,0.30
2022-11-08T05:06:44.987Z,0.20
2022-11-08T05:09:15.903Z,0.47
2022-11-08T05:11:49.589Z,0.30
2022-11-08T05:14:21.291Z,0.95
2022-11-08T05:16:52.047Z,0.30
2022-11-08T05:19:42.774Z,0.20
2022-11-08T05:22:25.829Z,0.85
2022-11-08T05:24:56.631Z,0.35
2022-11-08T05:27:30.189Z,0.65
2022-11-08T05:30:01.331Z,0.40
2022-11-08T05:32:32.098Z,0.52
2022-11-08T05:35:03.266Z,0.60
2022-11-08T05:37:33.964Z,0.38
2022-11-08T05:40:04.731Z,0.50
2022-11-08T05:42:38.091Z,0.80
2022-11-08T05:45:10.115Z,0.75
2022-11-08T05:47:41.047Z,0.50
2022-11-08T05:50:15.496Z,0.98
2022-11-08T05:52:49.428Z,0.98
2022-11-08T05:55:20.388Z,1.33
2022-11-08T05:57:54.173Z,0.60
2022-11-08T06:00:25.803Z,0.93
2022-11-08T06:02:57.112Z,1.38
2022-11-08T06:05:28.546Z,1.00
2022-11-08T06:07:59.250Z,0.82
2022-11-08T06:10:30.651Z,1.00
2022-11-08T06:13:05.481Z,1.52
2022-11-08T06:15:37.201Z,0.70
2022-11-08T06:18:08.888Z,1.00
2022-11-08T06:20:41.259Z,1.20
2022-11-08T06:23:12.291Z,1.23
2022-11-08T06:25:47.521Z,0.93
2022-11-08T06:28:22.807Z,1.23
2022-11-08T06:30:54.542Z,1.55
2022-11-08T06:33:26.069Z,1.17
2022-11-08T06:35:57.169Z,1.15
2022-11-08T06:38:28.919Z,2.13
2022-11-08T06:41:03.326Z,1.83
2022-11-08T06:43:37.276Z,1.73
2022-11-08T06:46:08.706Z,1.48
2022-11-08T06:48:39.518Z,1.30
2022-11-08T06:51:10.700Z,1.63
2022-11-08T06:53:41.877Z,1.90
2022-11-08T06:56:13.123Z,1.38
2022-11-08T06:58:47.870Z,1.73
2022-11-08T07:01:19.130Z,2.47
2022-11-08T07:03:50.480Z,1.52
2022-11-08T07:06:21.764Z,2.53
2022-11-08T07:08:52.816Z,2.20
2022-11-08T07:11:24.319Z,2.33
2022-11-08T07:13:58.007Z,1.80
2022-11-08T07:16:28.792Z,2.22
2022-11-08T07:18:59.539Z,1.95
2022-11-08T07:21:30.908Z,2.30
2022-11-08T07:24:01.812Z,2.33
2022-11-08T07:26:33.450Z,2.03
2022-11-08T07:29:06.874Z,2.33
2022-11-08T07:31:37.805Z,2.30
2022-11-08T07:34:08.604Z,2.50
2022-11-08T07:36:39.385Z,3.20
2022-11-08T07:39:10.464Z,2.30
2022-11-08T07:41:41.711Z,2.92
2022-11-08T07:44:15.845Z,2.75
2022-11-08T07:46:46.863Z,1.83
2022-11-08T07:49:17.841Z,2.63
2022-11-08T07:51:49.204Z,2.53
2022-11-08T07:54:20.475Z,2.35
2022-11-08T07:56:52.215Z,1.92
2022-11-08T07:59:28.701Z,2.00
2022-11-08T08:02:00.018Z,2.20
2022-11-08T08:04:32.897Z,3.05
2022-11-08T08:07:04.059Z,2.83
2022-11-08T08:09:35.114Z,3.08
2022-11-08T08:12:06.085Z,2.42
2022-11-08T08:14:39.444Z,2.47
2022-11-08T08:17:10.409Z,4.03
2022-11-08T08:19:41.206Z,3.03
2022-11-08T08:22:11.984Z,2.83
2022-11-08T08:24:42.941Z,3.25
2022-11-08T08:27:14.279Z,3.33
2022-11-08T08:29:48.645Z,3.25
2022-11-08T08:32:19.507Z,2.53
2022-11-08T08:34:50.813Z,2.88
2022-11-08T08:37:22.669Z,3.88
2022-11-08T08:39:54.150Z,3.97
2022-11-08T08:42:25.196Z,3.75
2022-11-08T08:44:59.102Z,2.60
2022-11-08T08:47:29.983Z,2.88
2022-11-08T08:50:01.692Z,2.88
2022-11-08T08:52:32.447Z,3.63
2022-11-08T08:55:03.206Z,4.60
2022-11-08T08:57:36.331Z,3.92
2022-11-08T09:03:07.559Z,3.65
2022-11-08T09:05:38.590Z,4.22
2022-11-08T09:08:09.818Z,3.80
2022-11-08T09:10:40.943Z,3.40
2022-11-08T09:13:12.026Z,3.83
2022-11-08T09:15:45.639Z,4.03
2022-11-08T09:18:17.912Z,4.47
2022-11-08T09:20:49.427Z,3.63
2022-11-08T09:23:20.942Z,2.88
2022-11-08T09:25:52.415Z,2.92
2022-11-08T09:28:26.963Z,3.45
2022-11-08T09:31:07.017Z,2.70
2022-11-08T09:33:38.057Z,2.72
2022-11-08T09:36:10.554Z,3.33
2022-11-08T09:38:42.275Z,2.10
2022-11-08T09:41:35.705Z,3.45
2022-11-08T09:44:28.695Z,3.05
2022-11-08T09:47:07.980Z,2.83
2022-11-08T09:49:46.420Z,2.50
2022-11-08T09:52:27.252Z,2.00
2022-11-08T09:55:11.584Z,2.38
2022-11-08T09:57:58.614Z,2.60
2022-11-08T10:00:29.704Z,3.00
2022-11-08T10:03:06.796Z,2.25
2022-11-08T10:05:43.599Z,3.08
2022-11-08T10:08:23.372Z,2.70
2022-11-08T10:11:15.778Z,3.20
2022-11-08T10:13:58.913Z,2.55
2022-11-08T10:16:37.274Z,1.98
2022-11-08T10:19:25.686Z,2.00
2022-11-08T10:22:04.077Z,2.58
2022-11-08T10:24:43.082Z,2.05
2022-11-08T10:27:19.156Z,2.72
2022-11-08T10:29:53.630Z,2.20
2022-11-08T10:32:27.057Z,3.08
2022-11-08T10:35:09.338Z,3.95
2022-11-08T10:37:42.340Z,3.00
2022-11-08T10:40:22.522Z,5.05
2022-11-08T10:43:04.312Z,3.05
2022-11-08T10:45:37.851Z,3.30
2022-11-08T10:48:09.515Z,2.20
2022-11-08T10:50:47.721Z,3.40
2022-11-08T10:53:26.342Z,2.97
2022-11-08T10:56:03.181Z,3.67
2022-11-08T11:01:22.066Z,3.35
2022-11-08T11:03:54.475Z,3.70
2022-11-08T11:06:31.010Z,4.00
2022-11-08T11:09:04.267Z,3.88
2022-11-08T11:11:40.472Z,3.35
2022-11-08T11:14:21.872Z,3.70
2022-11-08T11:16:59.663Z,2.95
2022-11-08T11:19:32.262Z,3.63
2022-11-08T11:22:09.906Z,4.13
2022-11-08T11:24:50.134Z,2.97
2022-11-08T11:27:27.426Z,3.17
2022-11-08T11:30:24.945Z,3.83
2022-11-08T11:33:08.147Z,3.20
2022-11-08T11:35:47.203Z,4.18
2022-11-08T11:38:32.509Z,3.55
2022-11-08T11:41:10.949Z,3.50
2022-11-08T11:43:47.987Z,3.40
2022-11-08T11:46:25.340Z,4.25
2022-11-08T11:49:01.919Z,5.00
2022-11-08T11:51:34.084Z,3.03
2022-11-08T11:54:10.973Z,4.38
2022-11-08T11:59:32.755Z,2.63
2022-11-08T12:02:38.288Z,3.80
2022-11-08T12:05:23.188Z,3.90
2022-11-08T12:08:02.052Z,2.85
2022-11-08T12:10:49.644Z,3.90
2022-11-08T12:16:03.887Z,4.05
2022-11-08T12:18:50.609Z,3.58
2022-11-08T12:21:32.605Z,4.85
2022-11-08T12:24:30.196Z,2.95
2022-11-08T12:27:12.885Z,3.33
2022-11-08T12:29:52.826Z,3.38
2022-11-08T12:32:42.078Z,4.25
2022-11-08T12:35:26.415Z,2.95
2022-11-08T12:38:08.177Z,4.60
2022-11-08T12:40:49.184Z,3.67
2022-11-08T12:43:34.757Z,3.67
2022-11-08T12:46:16.685Z,3.78
2022-11-08T12:49:13.626Z,4.15
2022-11-08T12:51:57.213Z,2.63
2022-11-08T12:54:36.627Z,3.38
2022-11-08T12:57:13.399Z,2.38
2022-11-08T12:59:52.206Z,2.55
2022-11-08T13:02:26.157Z,2.60
2022-11-08T13:05:04.047Z,4.38
2022-11-08T13:07:46.750Z,2.70
2022-11-08T13:10:32.932Z,2.85
2022-11-08T13:13:15.326Z,3.08
2022-11-08T13:16:14.834Z,2.20
2022-11-08T13:18:52.635Z,2.85
2022-11-08T13:21:42.410Z,2.22
2022-11-08T13:24:44.268Z,4.43
2022-11-08T13:27:28.551Z,3.50
2022-11-08T13:30:04.717Z,2.72
2022-11-08T13:32:53.808Z,2.80
2022-11-08T13:35:34.226Z,2.90
2022-11-08T13:38:21.284Z,2.75
2022-11-08T13:41:17.137Z,2.17
2022-11-08T13:43:49.852Z,3.00
2022-11-08T13:46:49.420Z,2.72
2022-11-08T13:49:27.175Z,2.95
2022-11-08T13:52:28.356Z,2.88
2022-11-08T13:54:59.626Z,3.33
2022-11-08T13:57:59.066Z,3.60
2022-11-08T14:00:48.639Z,2.42
2022-11-08T14:04:01.219Z,2.83
2022-11-08T14:06:42.258Z,2.42
2022-11-08T14:09:27.016Z,2.58
2022-11-08T14:12:07.235Z,3.10
2022-11-08T14:15:05.371Z,2.40
2022-11-08T14:20:35.201Z,3.10
2022-11-08T14:23:18.427Z,1.90
2022-11-08T14:25:54.467Z,2.08
2022-11-08T14:28:28.101Z,2.20
2022-11-08T14:31:00.105Z,2.85
2022-11-08T14:33:32.390Z,2.90
2022-11-08T14:36:05.362Z,2.78
2022-11-08T14:38:48.925Z,3.17
2022-11-08T14:41:23.882Z,2.75
2022-11-08T14:43:56.068Z,3.53
2022-11-08T14:46:32.735Z,3.53
2022-11-08T14:49:13.506Z,3.38
2022-11-08T14:51:44.989Z,2.97
2022-11-08T14:54:25.284Z,3.25
2022-11-08T14:56:56.519Z,3.33
2022-11-08T14:59:28.734Z,2.65
2022-11-08T15:01:59.720Z,2.20
2022-11-08T15:04:32.307Z,2.88
2022-11-08T15:07:03.540Z,2.95
2022-11-08T15:09:38.964Z,3.45
2022-11-08T15:12:16.074Z,3.63
2022-11-08T15:14:52.911Z,2.80
2022-11-08T15:17:38.991Z,4.75
2022-11-08T15:20:24.277Z,2.28
2022-11-08T15:22:56.881Z,3.55
2022-11-08T15:25:35.977Z,2.78
2022-11-08T15:28:24.962Z,2.90
2022-11-08T15:31:00.330Z,2.50
2022-11-08T15:33:37.080Z,1.83
2022-11-08T15:36:15.609Z,2.28
2022-11-08T15:38:52.100Z,2.00
2022-11-08T15:41:36.231Z,1.98
2022-11-08T15:44:17.959Z,2.20
2022-11-08T15:46:49.846Z,2.58
2022-11-08T15:49:24.515Z,3.05
2022-11-08T15:51:59.130Z,2.05
2022-11-08T15:54:31.286Z,2.47
2022-11-08T15:57:05.892Z,2.00
2022-11-08T15:59:37.798Z,2.70
2022-11-08T16:02:23.297Z,2.10
2022-11-08T16:04:54.733Z,2.30
2022-11-08T16:07:25.499Z,2.95
2022-11-08T16:09:56.255Z,3.35
2022-11-08T16:12:29.943Z,3.40
2022-11-08T16:15:00.776Z,2.95
2022-11-08T16:17:31.715Z,2.80
2022-11-08T16:20:02.575Z,3.13
2022-11-08T16:22:34.770Z,3.15
2022-11-08T16:25:08.245Z,3.03
2022-11-08T16:27:42.151Z,3.10
2022-11-08T16:30:21.159Z,3.00
2022-11-08T16:32:52.188Z,3.13
2022-11-08T16:35:23.078Z,3.78
2022-11-08T16:37:54.784Z,3.15
2022-11-08T16:40:27.381Z,2.75
2022-11-08T16:43:01.287Z,3.45
2022-11-08T16:45:58.570Z,2.90
2022-11-08T16:48:27.575Z,2.75
2022-11-08T16:51:03.306Z,3.33
2022-11-08T16:53:34.689Z,2.83
2022-11-08T16:56:05.905Z,3.28
2022-11-08T16:58:39.843Z,4.28
2022-11-08T17:01:15.405Z,3.78
2022-11-08T17:03:46.247Z,3.20
2022-11-08T17:06:19.543Z,3.40
2022-11-08T17:08:51.277Z,3.25
2022-11-08T17:11:24.305Z,3.33
2022-11-08T17:13:57.937Z,3.63
2022-11-08T17:16:29.135Z,3.08
2022-11-08T17:19:00.934Z,2.90
2022-11-08T17:21:47.541Z,2.42
2022-11-08T17:24:21.848Z,2.97
2022-11-08T17:26:53.973Z,2.95
2022-11-08T17:29:28.057Z,3.05
2022-11-08T17:31:59.100Z,3.13
2022-11-08T17:34:30.100Z,2.70
2022-11-08T17:37:04.883Z,2.90
2022-11-08T17:39:36.273Z,2.90
2022-11-08T17:42:07.506Z,2.78
2022-11-08T17:44:41.413Z,2.53
2022-11-08T17:47:12.817Z,2.22
2022-11-08T17:49:44.255Z,1.48
2022-11-08T17:52:16.352Z,2.38
2022-11-08T17:54:52.630Z,2.83
2022-11-08T17:57:23.828Z,2.15
2022-11-08T17:59:57.368Z,1.33
2022-11-08T18:02:28.832Z,0.90
2022-11-08T18:04:59.763Z,1.08
2022-11-08T18:07:31.617Z,1.05
2022-11-08T18:10:02.963Z,1.38
2022-11-08T18:12:35.746Z,0.82
2022-11-08T18:15:09.845Z,1.33
2022-11-08T18:17:40.646Z,1.48
2022-11-08T18:20:12.965Z,1.90
2022-11-08T18:22:44.062Z,1.73
2022-11-08T18:25:15.815Z,2.00
2022-11-08T18:27:47.086Z,1.50
2022-11-08T18:30:20.919Z,1.75
2022-11-08T18:32:52.877Z,1.73
2022-11-08T18:35:23.999Z,1.90
2022-11-08T18:37:55.288Z,1.60
2022-11-08T18:40:26.597Z,2.10
2022-11-08T18:42:57.689Z,1.60
2022-11-08T18:45:31.888Z,1.30
2022-11-08T18:48:03.613Z,1.70
2022-11-08T18:50:35.140Z,1.52
2022-11-08T18:53:07.437Z,1.88
2022-11-08T18:55:38.876Z,1.88
2022-11-08T18:58:10.087Z,2.28
2022-11-08T19:00:43.788Z,1.50
2022-11-08T19:03:14.901Z,2.50
2022-11-08T19:05:47.661Z,2.47
2022-11-08T19:08:20.696Z,2.53
2022-11-08T19:13:42.023Z,2.40
2022-11-08T19:16:17.811Z,3.17
2022-11-08T19:18:49.919Z,2.22
2022-11-08T19:21:23.846Z,2.72
2022-11-08T19:23:55.868Z,2.58
2022-11-08T19:26:29.893Z,2.45
2022-11-08T19:29:03.698Z,1.80
2022-11-08T19:31:39.333Z,1.95
2022-11-08T19:34:10.321Z,2.80
2022-11-08T19:36:43.798Z,1.73
2022-11-08T19:39:15.152Z,1.50
2022-11-08T19:41:46.305Z,2.00
2022-11-08T19:44:17.770Z,2.22
2022-11-08T19:46:53.103Z,2.67
2022-11-08T19:49:26.606Z,2.45
2022-11-08T19:51:57.620Z,2.42
2022-11-08T19:54:28.891Z,3.10
2022-11-08T19:57:05.205Z,2.25
2022-11-08T19:59:37.095Z,2.33
2022-11-08T20:02:12.521Z,2.47
2022-11-08T20:04:43.553Z,2.10
2022-11-08T20:07:15.142Z,2.40
2022-11-08T20:09:46.944Z,4.50
2022-11-08T20:12:18.414Z,2.45
2022-11-08T20:14:52.358Z,9.63
2022-11-08T20:17:27.155Z,2.70
2022-11-08T20:19:58.505Z,2.80
2022-11-08T20:22:29.743Z,2.08
2022-11-08T20:25:01.003Z,2.58
2022-11-08T20:27:32.334Z,2.40
2022-11-08T20:30:03.652Z,2.53
2022-11-08T20:32:37.013Z,3.40
2022-11-08T20:35:08.780Z,3.08
2022-11-08T20:37:39.580Z,2.65
2022-11-08T20:40:12.519Z,2.50
2022-11-08T20:42:43.573Z,1.77
2022-11-08T20:45:15.318Z,2.03
2022-11-08T20:47:49.049Z,2.45
2022-11-08T20:50:19.999Z,2.20
2022-11-08T20:52:51.298Z,1.90
2022-11-08T20:55:24.526Z,2.38
2022-11-08T20:57:55.632Z,2.03
2022-11-08T21:00:51.953Z,2.10
2022-11-08T21:03:20.256Z,1.95
2022-11-08T21:05:55.764Z,2.47
2022-11-08T21:11:19.218Z,1.98
2022-11-08T21:13:50.975Z,2.90
2022-11-08T21:16:38.190Z,2.65
2022-11-08T21:19:17.876Z,2.47
2022-11-08T21:21:50.476Z,2.85
2022-11-08T21:24:21.815Z,2.00
2022-11-08T21:26:53.450Z,2.20
2022-11-08T21:29:24.190Z,1.90
2022-11-08T21:31:55.031Z,1.50
2022-11-08T21:34:32.586Z,1.77
2022-11-08T21:37:04.134Z,1.80
2022-11-08T21:39:35.207Z,2.00
2022-11-08T21:42:06.742Z,2.20
2022-11-08T21:44:37.858Z,4.03
2022-11-08T21:47:08.651Z,2.20
2022-11-08T21:49:42.197Z,3.15
2022-11-08T21:52:13.189Z,3.75
2022-11-08T21:54:44.181Z,2.63
2022-11-08T21:57:15.401Z,2.33
2022-11-08T21:59:46.178Z,2.35
2022-11-08T22:02:19.819Z,2.45
2022-11-08T22:04:53.933Z,4.43
2022-11-08T22:07:24.927Z,2.95
2022-11-08T22:09:55.758Z,2.20
2022-11-08T22:12:27.013Z,3.28
2022-11-08T22:14:58.328Z,2.97
2022-11-08T22:17:29.139Z,2.88
2022-11-08T22:20:02.934Z,1.95
2022-11-08T22:22:34.529Z,1.83
2022-11-08T22:25:05.737Z,2.40
2022-11-08T22:27:36.506Z,2.10
2022-11-08T22:30:11.554Z,2.60
2022-11-08T22:32:46.724Z,2.25
2022-11-08T22:35:20.676Z,2.70
2022-11-08T22:37:51.494Z,2.35
2022-11-08T22:40:22.582Z,2.63
2022-11-08T22:42:53.358Z,2.53
2022-11-08T22:45:24.812Z,2.28
2022-11-08T22:47:55.704Z,2.20
2022-11-08T22:50:29.282Z,2.00
2022-11-08T22:53:00.049Z,1.70
2022-11-08T22:55:30.961Z,1.75
2022-11-08T22:58:01.826Z,2.10
2022-11-08T23:00:32.998Z,2.58
2022-11-08T23:03:03.715Z,2.08
2022-11-08T23:05:37.776Z,1.63
2022-11-08T23:08:09.053Z,1.90
2022-11-08T23:10:59.758Z,1.52
2022-11-08T23:13:42.755Z,1.17
2022-11-08T23:16:26.139Z,1.67
2022-11-08T23:19:08.970Z,1.48
2022-11-08T23:21:55.012Z,3.25
2022-11-08T23:24:26.006Z,1.75
2022-11-08T23:27:09.827Z,1.50
2022-11-08T23:29:53.177Z,2.53
2022-11-08T23:32:24.371Z,2.13
2022-11-08T23:34:55.590Z,1.90
2022-11-08T23:37:29.402Z,1.40
2022-11-08T23:40:12.609Z,1.25
2022-11-08T23:42:55.741Z,2.45
2022-11-08T23:45:26.904Z,2.17
2022-11-08T23:47:57.876Z,2.30
2022-11-08T23:50:29.233Z,1.60
2022-11-08T23:53:02.956Z,1.70
2022-11-08T23:55:33.762Z,1.58
2022-11-08T23:58:04.522Z,1.30
